sensor_id;sensor_type;location;lat;lon;timestamp;P1;durP1;ratioP1;P2;durP2;ratioP2
21305;SDS011;10812;51.838;5.838;2023-04-03T00:02:16;4.00;;;1.67;;
21305;SDS011;10812;51.838;5.838;2023-04-03T00:04:44;3.67;;;1.73;;
21305;SDS011;10812;51.838;5.838;2023-04-03T00:07:13;4.93;;;1.57;;
21305;SDS011;10812;51.838;5.838;2023-04-03T00:09:41;2.73;;;1.20;;
21305;SDS011;10812;51.838;5.838;2023-04-03T00:12:10;1.43;;;1.13;;
21305;SDS011;10812;51.838;5.838;2023-04-03T00:14:38;4.13;;;1.50;;
21305;SDS011;10812;51.838;5.838;2023-04-03T00:17:06;3.07;;;1.63;;
21305;SDS011;10812;51.838;5.838;2023-04-03T00:19:35;2.87;;;1.60;;
21305;SDS011;10812;51.838;5.838;2023-04-03T00:22:03;5.10;;;1.53;;
21305;SDS011;10812;51.838;5.838;2023-04-03T00:24:31;3.63;;;1.47;;
21305;SDS011;10812;51.838;5.838;2023-04-03T00:26:59;2.00;;;1.40;;
21305;SDS011;10812;51.838;5.838;2023-04-03T00:29:29;1.70;;;1.20;;
21305;SDS011;10812;51.838;5.838;2023-04-03T00:31:57;4.00;;;1.50;;
21305;SDS011;10812;51.838;5.838;2023-04-03T00:34:25;2.30;;;1.60;;
21305;SDS011;10812;51.838;5.838;2023-04-03T00:36:53;1.77;;;1.50;;
21305;SDS011;10812;51.838;5.838;2023-04-03T00:39:22;2.00;;;1.40;;
21305;SDS011;10812;51.838;5.838;2023-04-03T00:41:50;2.50;;;1.43;;
21305;SDS011;10812;51.838;5.838;2023-04-03T00:44:19;3.30;;;1.50;;
21305;SDS011;10812;51.838;5.838;2023-04-03T00:46:49;2.37;;;1.27;;
21305;SDS011;10812;51.838;5.838;2023-04-03T00:49:17;2.50;;;1.30;;
21305;SDS011;10812;51.838;5.838;2023-04-03T00:51:46;3.60;;;1.33;;
21305;SDS011;10812;51.838;5.838;2023-04-03T00:54:14;2.10;;;1.20;;
21305;SDS011;10812;51.838;5.838;2023-04-03T00:56:43;4.07;;;2.03;;
21305;SDS011;10812;51.838;5.838;2023-04-03T00:59:12;2.30;;;1.80;;
21305;SDS011;10812;51.838;5.838;2023-04-03T01:01:44;2.47;;;1.67;;
21305;SDS011;10812;51.838;5.838;2023-04-03T01:04:25;5.17;;;1.73;;
21305;SDS011;10812;51.838;5.838;2023-04-03T01:06:54;4.97;;;1.57;;
21305;SDS011;10812;51.838;5.838;2023-04-03T01:09:23;2.73;;;1.43;;
21305;SDS011;10812;51.838;5.838;2023-04-03T01:11:52;2.07;;;1.60;;
21305;SDS011;10812;51.838;5.838;2023-04-03T01:14:20;2.97;;;1.40;;
21305;SDS011;10812;51.838;5.838;2023-04-03T01:16:52;3.33;;;1.43;;
21305;SDS011;10812;51.838;5.838;2023-04-03T01:19:20;3.07;;;1.47;;
21305;SDS011;10812;51.838;5.838;2023-04-03T01:22:02;2.07;;;1.37;;
21305;SDS011;10812;51.838;5.838;2023-04-03T01:24:42;2.80;;;1.10;;
21305;SDS011;10812;51.838;5.838;2023-04-03T01:27:10;2.50;;;1.40;;
21305;SDS011;10812;51.838;5.838;2023-04-03T01:29:39;5.77;;;1.90;;
21305;SDS011;10812;51.838;5.838;2023-04-03T01:32:11;3.23;;;1.60;;
21305;SDS011;10812;51.838;5.838;2023-04-03T01:34:39;1.53;;;1.40;;
21305;SDS011;10812;51.838;5.838;2023-04-03T01:37:07;2.30;;;1.33;;
21305;SDS011;10812;51.838;5.838;2023-04-03T01:39:35;3.03;;;1.80;;
21305;SDS011;10812;51.838;5.838;2023-04-03T01:42:03;2.97;;;1.20;;
21305;SDS011;10812;51.838;5.838;2023-04-03T01:44:32;1.23;;;1.13;;
21305;SDS011;10812;51.838;5.838;2023-04-03T01:47:00;5.97;;;2.00;;
21305;SDS011;10812;51.838;5.838;2023-04-03T01:49:29;4.00;;;1.67;;
21305;SDS011;10812;51.838;5.838;2023-04-03T01:51:57;4.13;;;1.90;;
21305;SDS011;10812;51.838;5.838;2023-04-03T01:54:26;6.13;;;1.67;;
21305;SDS011;10812;51.838;5.838;2023-04-03T01:56:54;1.83;;;1.30;;
21305;SDS011;10812;51.838;5.838;2023-04-03T01:59:22;2.67;;;1.50;;
21305;SDS011;10812;51.838;5.838;2023-04-03T02:01:50;3.17;;;1.37;;
21305;SDS011;10812;51.838;5.838;2023-04-03T02:04:18;2.57;;;1.70;;
21305;SDS011;10812;51.838;5.838;2023-04-03T02:06:48;3.87;;;1.70;;
21305;SDS011;10812;51.838;5.838;2023-04-03T02:09:16;5.70;;;2.00;;
21305;SDS011;10812;51.838;5.838;2023-04-03T02:11:44;1.83;;;1.50;;
21305;SDS011;10812;51.838;5.838;2023-04-03T02:14:12;3.17;;;1.50;;
21305;SDS011;10812;51.838;5.838;2023-04-03T02:16:40;5.97;;;1.90;;
21305;SDS011;10812;51.838;5.838;2023-04-03T02:19:08;2.60;;;1.50;;
21305;SDS011;10812;51.838;5.838;2023-04-03T02:21:37;6.67;;;1.30;;
21305;SDS011;10812;51.838;5.838;2023-04-03T02:24:06;4.43;;;1.80;;
21305;SDS011;10812;51.838;5.838;2023-04-03T02:26:35;2.60;;;1.60;;
21305;SDS011;10812;51.838;5.838;2023-04-03T02:29:03;5.40;;;2.13;;
21305;SDS011;10812;51.838;5.838;2023-04-03T02:31:31;2.20;;;1.23;;
21305;SDS011;10812;51.838;5.838;2023-04-03T02:33:59;1.97;;;1.33;;
21305;SDS011;10812;51.838;5.838;2023-04-03T02:36:28;3.13;;;1.43;;
21305;SDS011;10812;51.838;5.838;2023-04-03T02:38:58;4.03;;;1.67;;
21305;SDS011;10812;51.838;5.838;2023-04-03T02:41:27;7.10;;;2.13;;
21305;SDS011;10812;51.838;5.838;2023-04-03T02:44:01;4.37;;;1.67;;
21305;SDS011;10812;51.838;5.838;2023-04-03T02:46:30;3.13;;;1.50;;
21305;SDS011;10812;51.838;5.838;2023-04-03T02:48:58;3.10;;;1.50;;
21305;SDS011;10812;51.838;5.838;2023-04-03T02:51:26;2.63;;;1.20;;
21305;SDS011;10812;51.838;5.838;2023-04-03T02:53:54;3.50;;;1.50;;
21305;SDS011;10812;51.838;5.838;2023-04-03T02:56:22;2.23;;;1.50;;
21305;SDS011;10812;51.838;5.838;2023-04-03T02:58:52;3.20;;;1.50;;
21305;SDS011;10812;51.838;5.838;2023-04-03T03:06:51;2.83;;;1.50;;
21305;SDS011;10812;51.838;5.838;2023-04-03T03:09:19;4.07;;;1.47;;
21305;SDS011;10812;51.838;5.838;2023-04-03T03:11:47;3.00;;;1.70;;
21305;SDS011;10812;51.838;5.838;2023-04-03T03:14:17;3.20;;;1.70;;
21305;SDS011;10812;51.838;5.838;2023-04-03T03:16:45;2.67;;;1.67;;
21305;SDS011;10812;51.838;5.838;2023-04-03T03:19:13;5.10;;;1.63;;
21305;SDS011;10812;51.838;5.838;2023-04-03T03:21:41;3.20;;;1.47;;
21305;SDS011;10812;51.838;5.838;2023-04-03T03:24:09;1.70;;;1.27;;
21305;SDS011;10812;51.838;5.838;2023-04-03T03:26:38;3.53;;;1.57;;
21305;SDS011;10812;51.838;5.838;2023-04-03T03:29:06;2.43;;;1.50;;
21305;SDS011;10812;51.838;5.838;2023-04-03T03:31:36;3.57;;;1.90;;
21305;SDS011;10812;51.838;5.838;2023-04-03T03:34:04;5.10;;;1.67;;
21305;SDS011;10812;51.838;5.838;2023-04-03T03:36:32;4.13;;;1.60;;
21305;SDS011;10812;51.838;5.838;2023-04-03T03:39:00;3.60;;;1.87;;
21305;SDS011;10812;51.838;5.838;2023-04-03T03:41:29;5.57;;;1.67;;
21305;SDS011;10812;51.838;5.838;2023-04-03T03:43:57;3.13;;;1.70;;
21305;SDS011;10812;51.838;5.838;2023-04-03T03:46:25;4.27;;;1.90;;
21305;SDS011;10812;51.838;5.838;2023-04-03T03:48:55;4.70;;;1.47;;
21305;SDS011;10812;51.838;5.838;2023-04-03T03:51:23;3.30;;;1.43;;
21305;SDS011;10812;51.838;5.838;2023-04-03T03:53:51;4.87;;;1.73;;
21305;SDS011;10812;51.838;5.838;2023-04-03T03:56:20;5.47;;;1.47;;
21305;SDS011;10812;51.838;5.838;2023-04-03T03:58:48;2.03;;;1.40;;
21305;SDS011;10812;51.838;5.838;2023-04-03T04:01:16;4.83;;;1.67;;
21305;SDS011;10812;51.838;5.838;2023-04-03T04:03:45;3.67;;;1.90;;
21305;SDS011;10812;51.838;5.838;2023-04-03T04:06:15;2.70;;;1.40;;
21305;SDS011;10812;51.838;5.838;2023-04-03T04:08:43;3.37;;;2.03;;
21305;SDS011;10812;51.838;5.838;2023-04-03T04:11:11;2.53;;;1.73;;
21305;SDS011;10812;51.838;5.838;2023-04-03T04:13:39;3.27;;;1.93;;
21305;SDS011;10812;51.838;5.838;2023-04-03T04:16:07;3.60;;;2.00;;
21305;SDS011;10812;51.838;5.838;2023-04-03T04:18:36;4.77;;;1.90;;
21305;SDS011;10812;51.838;5.838;2023-04-03T04:21:04;2.73;;;1.70;;
21305;SDS011;10812;51.838;5.838;2023-04-03T04:23:33;3.47;;;2.03;;
21305;SDS011;10812;51.838;5.838;2023-04-03T04:26:02;3.73;;;1.67;;
21305;SDS011;10812;51.838;5.838;2023-04-03T04:28:30;2.43;;;1.90;;
21305;SDS011;10812;51.838;5.838;2023-04-03T04:30:58;5.77;;;1.80;;
21305;SDS011;10812;51.838;5.838;2023-04-03T04:33:26;3.63;;;1.70;;
21305;SDS011;10812;51.838;5.838;2023-04-03T04:35:54;4.07;;;2.13;;
21305;SDS011;10812;51.838;5.838;2023-04-03T04:46:07;2.57;;;1.50;;
21305;SDS011;10812;51.838;5.838;2023-04-03T04:48:38;8.70;;;2.10;;
21305;SDS011;10812;51.838;5.838;2023-04-03T04:51:06;3.43;;;1.73;;
21305;SDS011;10812;51.838;5.838;2023-04-03T04:53:34;2.57;;;1.73;;
21305;SDS011;10812;51.838;5.838;2023-04-03T04:56:03;4.40;;;1.80;;
21305;SDS011;10812;51.838;5.838;2023-04-03T04:58:31;4.57;;;1.80;;
21305;SDS011;10812;51.838;5.838;2023-04-03T05:01:00;1.80;;;1.53;;
21305;SDS011;10812;51.838;5.838;2023-04-03T05:03:30;3.63;;;1.60;;
21305;SDS011;10812;51.838;5.838;2023-04-03T05:05:58;3.73;;;1.90;;
21305;SDS011;10812;51.838;5.838;2023-04-03T05:33:25;5.23;;;2.07;;
21305;SDS011;10812;51.838;5.838;2023-04-03T05:35:53;3.90;;;1.80;;
21305;SDS011;10812;51.838;5.838;2023-04-03T05:38:22;3.33;;;1.97;;
21305;SDS011;10812;51.838;5.838;2023-04-03T05:48:22;3.63;;;1.60;;
21305;SDS011;10812;51.838;5.838;2023-04-03T05:50:51;4.87;;;1.80;;
21305;SDS011;10812;51.838;5.838;2023-04-03T05:53:23;4.03;;;1.70;;
21305;SDS011;10812;51.838;5.838;2023-04-03T05:55:54;4.47;;;2.00;;
21305;SDS011;10812;51.838;5.838;2023-04-03T06:08:56;6.83;;;1.90;;
21305;SDS011;10812;51.838;5.838;2023-04-03T06:11:25;6.37;;;1.50;;
21305;SDS011;10812;51.838;5.838;2023-04-03T06:20:45;4.00;;;1.60;;
21305;SDS011;10812;51.838;5.838;2023-04-03T06:23:13;5.07;;;1.60;;
21305;SDS011;10812;51.838;5.838;2023-04-03T06:25:43;4.13;;;1.60;;
21305;SDS011;10812;51.838;5.838;2023-04-03T06:28:11;3.63;;;1.40;;
21305;SDS011;10812;51.838;5.838;2023-04-03T06:30:39;3.20;;;1.60;;
21305;SDS011;10812;51.838;5.838;2023-04-03T06:33:08;3.03;;;1.00;;
21305;SDS011;10812;51.838;5.838;2023-04-03T06:35:37;3.53;;;1.40;;
21305;SDS011;10812;51.838;5.838;2023-04-03T06:38:05;4.17;;;1.40;;
21305;SDS011;10812;51.838;5.838;2023-04-03T06:40:35;2.87;;;1.20;;
21305;SDS011;10812;51.838;5.838;2023-04-03T06:43:06;4.43;;;1.87;;
21305;SDS011;10812;51.838;5.838;2023-04-03T06:45:34;3.50;;;1.07;;
21305;SDS011;10812;51.838;5.838;2023-04-03T06:48:03;3.43;;;1.40;;
21305;SDS011;10812;51.838;5.838;2023-04-03T06:50:31;2.60;;;1.00;;
21305;SDS011;10812;51.838;5.838;2023-04-03T06:53:00;3.27;;;1.53;;
21305;SDS011;10812;51.838;5.838;2023-04-03T07:10:16;2.40;;;0.83;;
21305;SDS011;10812;51.838;5.838;2023-04-03T07:12:45;2.63;;;1.10;;
21305;SDS011;10812;51.838;5.838;2023-04-03T07:15:13;1.97;;;1.13;;
21305;SDS011;10812;51.838;5.838;2023-04-03T07:17:41;3.50;;;1.27;;
21305;SDS011;10812;51.838;5.838;2023-04-03T07:20:10;12.53;;;2.20;;
21305;SDS011;10812;51.838;5.838;2023-04-03T07:22:39;1.73;;;1.10;;
21305;SDS011;10812;51.838;5.838;2023-04-03T07:25:09;2.93;;;0.90;;
21305;SDS011;10812;51.838;5.838;2023-04-03T07:27:37;2.83;;;1.20;;
21305;SDS011;10812;51.838;5.838;2023-04-03T07:30:06;2.03;;;1.50;;
21305;SDS011;10812;51.838;5.838;2023-04-03T07:32:35;4.73;;;1.10;;
21305;SDS011;10812;51.838;5.838;2023-04-03T07:35:03;1.43;;;0.90;;
21305;SDS011;10812;51.838;5.838;2023-04-03T07:37:32;2.37;;;1.23;;
21305;SDS011;10812;51.838;5.838;2023-04-03T07:40:00;4.00;;;1.37;;
21305;SDS011;10812;51.838;5.838;2023-04-03T07:42:31;2.27;;;1.00;;
21305;SDS011;10812;51.838;5.838;2023-04-03T07:44:59;1.33;;;0.83;;
21305;SDS011;10812;51.838;5.838;2023-04-03T07:47:27;2.43;;;1.20;;
21305;SDS011;10812;51.838;5.838;2023-04-03T07:49:56;3.90;;;1.17;;
21305;SDS011;10812;51.838;5.838;2023-04-03T07:52:24;2.20;;;0.93;;
21305;SDS011;10812;51.838;5.838;2023-04-03T07:54:52;2.07;;;0.97;;
21305;SDS011;10812;51.838;5.838;2023-04-03T07:57:20;4.80;;;1.40;;
21305;SDS011;10812;51.838;5.838;2023-04-03T07:59:50;3.37;;;1.33;;
21305;SDS011;10812;51.838;5.838;2023-04-03T08:02:18;1.80;;;0.97;;
21305;SDS011;10812;51.838;5.838;2023-04-03T08:04:46;3.20;;;1.00;;
21305;SDS011;10812;51.838;5.838;2023-04-03T08:07:15;2.63;;;1.00;;
21305;SDS011;10812;51.838;5.838;2023-04-03T08:09:43;3.47;;;1.17;;
21305;SDS011;10812;51.838;5.838;2023-04-03T08:12:11;3.80;;;1.43;;
21305;SDS011;10812;51.838;5.838;2023-04-03T08:14:41;3.10;;;1.13;;
21305;SDS011;10812;51.838;5.838;2023-04-03T08:17:10;3.53;;;1.03;;
21305;SDS011;10812;51.838;5.838;2023-04-03T08:19:39;1.60;;;1.00;;
21305;SDS011;10812;51.838;5.838;2023-04-03T08:22:07;2.37;;;1.10;;
21305;SDS011;10812;51.838;5.838;2023-04-03T08:24:36;2.83;;;1.10;;
21305;SDS011;10812;51.838;5.838;2023-04-03T08:27:14;3.63;;;1.33;;
21305;SDS011;10812;51.838;5.838;2023-04-03T08:29:42;4.57;;;1.13;;
21305;SDS011;10812;51.838;5.838;2023-04-03T08:32:12;3.90;;;1.13;;
21305;SDS011;10812;51.838;5.838;2023-04-03T08:34:40;4.13;;;1.13;;
21305;SDS011;10812;51.838;5.838;2023-04-03T09:03:54;3.17;;;0.90;;
21305;SDS011;10812;51.838;5.838;2023-04-03T09:06:23;1.53;;;0.70;;
21305;SDS011;10812;51.838;5.838;2023-04-03T09:08:58;4.73;;;1.10;;
21305;SDS011;10812;51.838;5.838;2023-04-03T09:11:36;2.50;;;1.00;;
21305;SDS011;10812;51.838;5.838;2023-04-03T09:14:13;1.90;;;1.20;;
21305;SDS011;10812;51.838;5.838;2023-04-03T09:17:08;1.17;;;0.70;;
21305;SDS011;10812;51.838;5.838;2023-04-03T09:19:44;2.73;;;0.90;;
21305;SDS011;10812;51.838;5.838;2023-04-03T09:22:20;2.17;;;0.90;;
21305;SDS011;10812;51.838;5.838;2023-04-03T09:24:52;1.60;;;0.87;;
21305;SDS011;10812;51.838;5.838;2023-04-03T09:27:26;2.10;;;0.70;;
21305;SDS011;10812;51.838;5.838;2023-04-03T09:29:55;1.37;;;0.60;;
21305;SDS011;10812;51.838;5.838;2023-04-03T09:32:26;1.87;;;0.80;;
21305;SDS011;10812;51.838;5.838;2023-04-03T09:34:58;1.90;;;0.50;;
21305;SDS011;10812;51.838;5.838;2023-04-03T09:37:47;1.00;;;0.37;;
21305;SDS011;10812;51.838;5.838;2023-04-03T09:40:27;1.60;;;0.50;;
21305;SDS011;10812;51.838;5.838;2023-04-03T09:43:02;0.50;;;0.33;;
21305;SDS011;10812;51.838;5.838;2023-04-03T09:45:47;1.23;;;0.27;;
21305;SDS011;10812;51.838;5.838;2023-04-03T09:48:18;0.60;;;0.20;;
21305;SDS011;10812;51.838;5.838;2023-04-03T09:50:56;1.60;;;0.40;;
21305;SDS011;10812;51.838;5.838;2023-04-03T09:53:30;1.60;;;1.03;;
21305;SDS011;10812;51.838;5.838;2023-04-03T09:56:02;1.77;;;0.57;;
21305;SDS011;10812;51.838;5.838;2023-04-03T09:58:32;1.07;;;0.50;;
21305;SDS011;10812;51.838;5.838;2023-04-03T10:01:23;1.07;;;0.30;;
21305;SDS011;10812;51.838;5.838;2023-04-03T10:04:03;0.57;;;0.20;;
21305;SDS011;10812;51.838;5.838;2023-04-03T10:06:38;0.30;;;0.30;;
21305;SDS011;10812;51.838;5.838;2023-04-03T10:09:17;1.10;;;0.27;;
21305;SDS011;10812;51.838;5.838;2023-04-03T10:11:57;0.23;;;0.20;;
21305;SDS011;10812;51.838;5.838;2023-04-03T10:14:27;1.33;;;0.30;;
21305;SDS011;10812;51.838;5.838;2023-04-03T10:16:58;1.90;;;0.67;;
21305;SDS011;10812;51.838;5.838;2023-04-03T10:19:34;2.40;;;0.33;;
21305;SDS011;10812;51.838;5.838;2023-04-03T10:22:20;3.80;;;0.40;;
21305;SDS011;10812;51.838;5.838;2023-04-03T10:25:00;0.40;;;0.40;;
21305;SDS011;10812;51.838;5.838;2023-04-03T10:27:35;0.80;;;0.20;;
21305;SDS011;10812;51.838;5.838;2023-04-03T10:30:14;1.17;;;0.30;;
21305;SDS011;10812;51.838;5.838;2023-04-03T10:32:52;1.10;;;0.40;;
21305;SDS011;10812;51.838;5.838;2023-04-03T10:35:32;1.17;;;0.50;;
21305;SDS011;10812;51.838;5.838;2023-04-03T10:38:09;0.63;;;0.40;;
21305;SDS011;10812;51.838;5.838;2023-04-03T10:40:46;1.80;;;0.47;;
21305;SDS011;10812;51.838;5.838;2023-04-03T10:43:21;1.57;;;0.60;;
21305;SDS011;10812;51.838;5.838;2023-04-03T10:45:57;1.53;;;0.77;;
21305;SDS011;10812;51.838;5.838;2023-04-03T10:51:29;0.70;;;0.30;;
21305;SDS011;10812;51.838;5.838;2023-04-03T10:54:08;0.80;;;0.50;;
21305;SDS011;10812;51.838;5.838;2023-04-03T10:56:40;0.50;;;0.40;;
21305;SDS011;10812;51.838;5.838;2023-04-03T10:59:16;0.20;;;0.20;;
21305;SDS011;10812;51.838;5.838;2023-04-03T11:01:49;1.70;;;0.50;;
21305;SDS011;10812;51.838;5.838;2023-04-03T11:04:22;1.53;;;0.37;;
21305;SDS011;10812;51.838;5.838;2023-04-03T11:06:56;0.47;;;0.40;;
21305;SDS011;10812;51.838;5.838;2023-04-03T11:09:30;1.03;;;0.43;;
21305;SDS011;10812;51.838;5.838;2023-04-03T11:12:04;2.47;;;0.83;;
21305;SDS011;10812;51.838;5.838;2023-04-03T11:14:37;1.37;;;0.43;;
21305;SDS011;10812;51.838;5.838;2023-04-03T11:17:11;1.83;;;0.50;;
21305;SDS011;10812;51.838;5.838;2023-04-03T11:19:49;1.90;;;0.70;;
21305;SDS011;10812;51.838;5.838;2023-04-03T11:22:25;1.40;;;0.60;;
21305;SDS011;10812;51.838;5.838;2023-04-03T11:24:59;2.07;;;0.70;;
21305;SDS011;10812;51.838;5.838;2023-04-03T11:27:33;0.80;;;0.30;;
21305;SDS011;10812;51.838;5.838;2023-04-03T11:30:09;0.83;;;0.47;;
21305;SDS011;10812;51.838;5.838;2023-04-03T11:35:36;0.60;;;0.40;;
21305;SDS011;10812;51.838;5.838;2023-04-03T11:38:10;1.03;;;0.83;;
21305;SDS011;10812;51.838;5.838;2023-04-03T11:40:48;0.60;;;0.40;;
21305;SDS011;10812;51.838;5.838;2023-04-03T11:43:21;1.20;;;0.50;;
21305;SDS011;10812;51.838;5.838;2023-04-03T11:45:53;2.50;;;0.53;;
21305;SDS011;10812;51.838;5.838;2023-04-03T12:06:42;1.33;;;0.50;;
21305;SDS011;10812;51.838;5.838;2023-04-03T12:09:34;1.40;;;0.57;;
21305;SDS011;10812;51.838;5.838;2023-04-03T12:12:26;1.40;;;0.63;;
21305;SDS011;10812;51.838;5.838;2023-04-03T12:15:18;1.80;;;0.50;;
21305;SDS011;10812;51.838;5.838;2023-04-03T12:21:19;1.43;;;1.00;;
21305;SDS011;10812;51.838;5.838;2023-04-03T12:23:59;5.20;;;0.73;;
21305;SDS011;10812;51.838;5.838;2023-04-03T12:26:30;1.30;;;0.53;;
21305;SDS011;10812;51.838;5.838;2023-04-03T12:29:15;0.83;;;0.60;;
21305;SDS011;10812;51.838;5.838;2023-04-03T12:31:50;1.33;;;0.67;;
21305;SDS011;10812;51.838;5.838;2023-04-03T12:34:36;1.13;;;0.50;;
21305;SDS011;10812;51.838;5.838;2023-04-03T12:37:17;0.97;;;0.47;;
21305;SDS011;10812;51.838;5.838;2023-04-03T12:40:00;1.63;;;0.40;;
21305;SDS011;10812;51.838;5.838;2023-04-03T12:42:40;3.30;;;0.83;;
21305;SDS011;10812;51.838;5.838;2023-04-03T12:45:19;0.80;;;0.60;;
21305;SDS011;10812;51.838;5.838;2023-04-03T12:47:51;1.80;;;0.93;;
21305;SDS011;10812;51.838;5.838;2023-04-03T12:50:22;1.37;;;0.60;;
21305;SDS011;10812;51.838;5.838;2023-04-03T12:52:54;1.33;;;0.80;;
21305;SDS011;10812;51.838;5.838;2023-04-03T12:55:26;2.33;;;0.70;;
21305;SDS011;10812;51.838;5.838;2023-04-03T12:57:54;1.20;;;0.63;;
21305;SDS011;10812;51.838;5.838;2023-04-03T13:00:30;1.00;;;0.80;;
21305;SDS011;10812;51.838;5.838;2023-04-03T13:03:02;1.60;;;1.00;;
21305;SDS011;10812;51.838;5.838;2023-04-03T13:05:32;1.23;;;0.70;;
21305;SDS011;10812;51.838;5.838;2023-04-03T13:08:03;1.20;;;0.70;;
21305;SDS011;10812;51.838;5.838;2023-04-03T13:10:32;1.63;;;0.90;;
21305;SDS011;10812;51.838;5.838;2023-04-03T13:13:15;1.40;;;0.63;;
21305;SDS011;10812;51.838;5.838;2023-04-03T13:15:44;1.80;;;0.93;;
21305;SDS011;10812;51.838;5.838;2023-04-03T13:18:24;1.40;;;0.80;;
21305;SDS011;10812;51.838;5.838;2023-04-03T13:20:55;1.57;;;0.80;;
21305;SDS011;10812;51.838;5.838;2023-04-03T13:23:29;0.90;;;0.60;;
21305;SDS011;10812;51.838;5.838;2023-04-03T13:25:58;1.43;;;0.90;;
21305;SDS011;10812;51.838;5.838;2023-04-03T13:28:30;1.33;;;0.80;;
21305;SDS011;10812;51.838;5.838;2023-04-03T13:31:01;1.57;;;0.83;;
21305;SDS011;10812;51.838;5.838;2023-04-03T13:33:34;3.20;;;0.90;;
21305;SDS011;10812;51.838;5.838;2023-04-03T13:36:05;0.87;;;0.70;;
21305;SDS011;10812;51.838;5.838;2023-04-03T13:38:37;2.00;;;0.93;;
21305;SDS011;10812;51.838;5.838;2023-04-03T13:41:21;1.70;;;0.67;;
21305;SDS011;10812;51.838;5.838;2023-04-03T13:43:52;0.70;;;0.50;;
21305;SDS011;10812;51.838;5.838;2023-04-03T13:46:32;0.80;;;0.77;;
21305;SDS011;10812;51.838;5.838;2023-04-03T13:49:01;1.43;;;0.53;;
21305;SDS011;10812;51.838;5.838;2023-04-03T13:51:45;1.90;;;0.80;;
21305;SDS011;10812;51.838;5.838;2023-04-03T13:54:30;2.83;;;0.70;;
21305;SDS011;10812;51.838;5.838;2023-04-03T13:57:01;2.63;;;0.70;;
21305;SDS011;10812;51.838;5.838;2023-04-03T13:59:31;2.80;;;0.60;;
21305;SDS011;10812;51.838;5.838;2023-04-03T14:02:09;1.83;;;1.00;;
21305;SDS011;10812;51.838;5.838;2023-04-03T14:04:47;1.33;;;1.07;;
21305;SDS011;10812;51.838;5.838;2023-04-03T14:07:19;2.30;;;0.80;;
21305;SDS011;10812;51.838;5.838;2023-04-03T14:09:47;3.33;;;0.87;;
21305;SDS011;10812;51.838;5.838;2023-04-03T14:12:17;0.70;;;0.60;;
21305;SDS011;10812;51.838;5.838;2023-04-03T14:14:56;3.30;;;0.70;;
21305;SDS011;10812;51.838;5.838;2023-04-03T14:17:26;1.50;;;0.60;;
21305;SDS011;10812;51.838;5.838;2023-04-03T14:19:56;2.00;;;0.60;;
21305;SDS011;10812;51.838;5.838;2023-04-03T14:22:29;1.83;;;0.97;;
21305;SDS011;10812;51.838;5.838;2023-04-03T14:24:59;2.50;;;0.70;;
21305;SDS011;10812;51.838;5.838;2023-04-03T14:27:29;5.53;;;0.73;;
21305;SDS011;10812;51.838;5.838;2023-04-03T14:30:01;1.17;;;0.60;;
21305;SDS011;10812;51.838;5.838;2023-04-03T14:32:31;0.93;;;0.70;;
21305;SDS011;10812;51.838;5.838;2023-04-03T15:06:14;2.40;;;1.03;;
21305;SDS011;10812;51.838;5.838;2023-04-03T15:08:43;1.90;;;0.80;;
21305;SDS011;10812;51.838;5.838;2023-04-03T15:11:13;4.07;;;1.03;;
21305;SDS011;10812;51.838;5.838;2023-04-03T15:13:42;1.17;;;0.80;;
21305;SDS011;10812;51.838;5.838;2023-04-03T15:16:12;2.33;;;0.97;;
21305;SDS011;10812;51.838;5.838;2023-04-03T15:18:43;3.40;;;1.30;;
21305;SDS011;10812;51.838;5.838;2023-04-03T15:21:14;1.37;;;0.77;;
21305;SDS011;10812;51.838;5.838;2023-04-03T15:23:43;2.87;;;1.17;;
21305;SDS011;10812;51.838;5.838;2023-04-03T15:26:11;1.40;;;0.67;;
21305;SDS011;10812;51.838;5.838;2023-04-03T15:28:39;4.13;;;1.20;;
21305;SDS011;10812;51.838;5.838;2023-04-03T15:31:10;1.50;;;0.40;;
21305;SDS011;10812;51.838;5.838;2023-04-03T15:33:38;1.37;;;0.83;;
21305;SDS011;10812;51.838;5.838;2023-04-03T15:36:06;1.33;;;0.83;;
21305;SDS011;10812;51.838;5.838;2023-04-03T15:38:56;4.17;;;0.90;;
21305;SDS011;10812;51.838;5.838;2023-04-03T15:41:24;2.67;;;0.93;;
21305;SDS011;10812;51.838;5.838;2023-04-03T15:43:52;2.20;;;1.10;;
21305;SDS011;10812;51.838;5.838;2023-04-03T15:46:21;3.27;;;1.03;;
21305;SDS011;10812;51.838;5.838;2023-04-03T15:48:49;2.90;;;1.10;;
21305;SDS011;10812;51.838;5.838;2023-04-03T15:51:17;3.00;;;0.87;;
21305;SDS011;10812;51.838;5.838;2023-04-03T15:57:37;2.20;;;0.97;;
21305;SDS011;10812;51.838;5.838;2023-04-03T16:00:11;1.80;;;0.90;;
21305;SDS011;10812;51.838;5.838;2023-04-03T16:02:40;4.17;;;1.20;;
21305;SDS011;10812;51.838;5.838;2023-04-03T16:05:09;3.30;;;0.90;;
21305;SDS011;10812;51.838;5.838;2023-04-03T16:07:38;6.63;;;1.37;;
21305;SDS011;10812;51.838;5.838;2023-04-03T16:10:07;3.40;;;1.00;;
21305;SDS011;10812;51.838;5.838;2023-04-03T16:12:37;1.77;;;1.20;;
21305;SDS011;10812;51.838;5.838;2023-04-03T16:15:06;3.23;;;1.00;;
21305;SDS011;10812;51.838;5.838;2023-04-03T16:17:35;1.00;;;0.90;;
21305;SDS011;10812;51.838;5.838;2023-04-03T16:20:05;3.70;;;1.00;;
21305;SDS011;10812;51.838;5.838;2023-04-03T16:22:35;2.27;;;1.43;;
21305;SDS011;10812;51.838;5.838;2023-04-03T16:25:04;5.73;;;1.43;;
21305;SDS011;10812;51.838;5.838;2023-04-03T16:27:34;2.20;;;1.40;;
21305;SDS011;10812;51.838;5.838;2023-04-03T16:30:05;2.23;;;1.37;;
21305;SDS011;10812;51.838;5.838;2023-04-03T16:32:35;2.77;;;1.40;;
21305;SDS011;10812;51.838;5.838;2023-04-03T16:35:04;3.63;;;1.10;;
21305;SDS011;10812;51.838;5.838;2023-04-03T16:37:33;3.80;;;1.30;;
21305;SDS011;10812;51.838;5.838;2023-04-03T16:40:01;2.73;;;1.13;;
21305;SDS011;10812;51.838;5.838;2023-04-03T16:42:30;4.00;;;1.10;;
21305;SDS011;10812;51.838;5.838;2023-04-03T16:44:59;2.00;;;1.00;;
21305;SDS011;10812;51.838;5.838;2023-04-03T16:47:31;3.87;;;1.10;;
21305;SDS011;10812;51.838;5.838;2023-04-03T16:49:59;3.33;;;0.97;;
21305;SDS011;10812;51.838;5.838;2023-04-03T16:52:27;1.93;;;0.90;;
21305;SDS011;10812;51.838;5.838;2023-04-03T16:54:55;3.73;;;0.90;;
21305;SDS011;10812;51.838;5.838;2023-04-03T16:57:25;2.33;;;1.00;;
21305;SDS011;10812;51.838;5.838;2023-04-03T16:59:53;1.30;;;0.90;;
21305;SDS011;10812;51.838;5.838;2023-04-03T17:02:22;2.60;;;1.40;;
21305;SDS011;10812;51.838;5.838;2023-04-03T17:04:53;1.30;;;0.90;;
21305;SDS011;10812;51.838;5.838;2023-04-03T17:07:22;4.67;;;1.57;;
21305;SDS011;10812;51.838;5.838;2023-04-03T17:09:52;1.57;;;0.90;;
21305;SDS011;10812;51.838;5.838;2023-04-03T17:12:20;3.07;;;1.17;;
21305;SDS011;10812;51.838;5.838;2023-04-03T17:14:50;2.43;;;1.37;;
21305;SDS011;10812;51.838;5.838;2023-04-03T17:17:19;2.23;;;0.93;;
21305;SDS011;10812;51.838;5.838;2023-04-03T17:19:49;3.03;;;0.97;;
21305;SDS011;10812;51.838;5.838;2023-04-03T17:22:18;3.33;;;1.00;;
21305;SDS011;10812;51.838;5.838;2023-04-03T17:24:47;1.53;;;1.10;;
21305;SDS011;10812;51.838;5.838;2023-04-03T17:27:15;4.43;;;1.30;;
21305;SDS011;10812;51.838;5.838;2023-04-03T17:29:43;2.00;;;1.10;;
21305;SDS011;10812;51.838;5.838;2023-04-03T17:32:11;5.63;;;1.13;;
21305;SDS011;10812;51.838;5.838;2023-04-03T17:34:40;1.20;;;0.77;;
21305;SDS011;10812;51.838;5.838;2023-04-03T17:37:08;4.07;;;1.20;;
21305;SDS011;10812;51.838;5.838;2023-04-03T17:39:37;3.07;;;1.10;;
21305;SDS011;10812;51.838;5.838;2023-04-03T17:42:07;1.87;;;1.10;;
21305;SDS011;10812;51.838;5.838;2023-04-03T17:44:35;4.97;;;1.00;;
21305;SDS011;10812;51.838;5.838;2023-04-03T17:47:04;1.93;;;1.20;;
21305;SDS011;10812;51.838;5.838;2023-04-03T17:49:33;2.10;;;1.17;;
21305;SDS011;10812;51.838;5.838;2023-04-03T17:52:02;1.77;;;1.20;;
21305;SDS011;10812;51.838;5.838;2023-04-03T17:54:30;2.67;;;0.90;;
21305;SDS011;10812;51.838;5.838;2023-04-03T17:56:59;4.73;;;1.10;;
21305;SDS011;10812;51.838;5.838;2023-04-03T17:59:29;2.73;;;1.10;;